Eko 2 — SY9957 — position and weather

sailwx.info

Track history (hours):
 
Tides and Currents Weather Stations Pressure Air Temp Water Temp Dewpoint Dewpoint Depression Visibility Wind Speed Wind Dir Waves Ship Positions

Eko 2

Last reported at 2016-Oct-01 04:32 UTC. Time now 2016-Oct-01 18:56 UTC.
Position N 37°32' E 025°09'.

Length 89 m; draft 4.3 m.

Type: Ship (hazmat cat A). MMSI: 240827000.

Date/timePositionNaut miles runAvg speedWind from/ knotsBaromVisibWave heightAir tempDewpointWater temp
2016-Oct-01 04:32N 37°32' E 025°09'0 0.0
2016-Oct-01 03:33N 37°32' E 025°09'0 0.0
2016-Oct-01 00:32N 37°32' E 025°09'0 0.0
2016-Sep-30 22:32N 37°32' E 025°09'0 0.0
2016-Sep-30 20:32N 37°32' E 025°09'0 0.0
2016-Sep-30 17:32N 37°32' E 025°09'0 0.0
2016-Sep-30 16:33N 37°32' E 025°09'8 0.7
2016-Sep-30 06:23N 37°26' E 025°03'13 4.5
2016-Sep-30 03:31N 37°28' E 025°20'0 0.0
2016-Sep-30 02:31N 37°28' E 025°20'0 0.0
2016-Sep-29 23:31N 37°28' E 025°20'0 0.0
2016-Sep-29 21:28N 37°28' E 025°20'0 0.0
2016-Sep-29 20:31N 37°28' E 025°20'0 0.0
2016-Sep-29 19:31N 37°28' E 025°20'0 0.0
2016-Sep-29 16:31N 37°28' E 025°20'0 0.0
2016-Sep-29 15:31N 37°28' E 025°20'0 0.0
2016-Sep-29 14:33N 37°28' E 025°20'2 1.8
2016-Sep-29 13:33N 37°27' E 025°17'35 1.7
2016-Sep-28 16:33N 37°52' E 024°46'30 3.7
2016-Sep-28 08:33N 37°28' E 025°09'24 4.8
2016-Sep-28 03:32N 37°06' E 025°22'0 0.0
2016-Sep-28 02:32N 37°06' E 025°22'0 0.0
2016-Sep-28 01:31N 37°06' E 025°22'0 0.0
2016-Sep-27 23:34N 37°06' E 025°22'1 0.2
2016-Sep-27 19:31N 37°06' E 025°21'  
2016-Sep-23 06:33N 37°18' E 025°05'14 7.1
2016-Sep-23 04:31N 37°32' E 025°09'0 0.0
2016-Sep-23 03:31N 37°32' E 025°09'0 0.0
2016-Sep-23 02:28N 37°32' E 025°09'0 0.0
2016-Sep-23 01:25N 37°32' E 025°09'0 0.0
2016-Sep-23 00:31N 37°32' E 025°09'0 0.0
2016-Sep-22 23:31N 37°32' E 025°09'0 0.0
2016-Sep-22 20:31N 37°32' E 025°09'0 0.0
2016-Sep-22 12:31N 37°32' E 025°09'  
Track history (hours):
 
Tides and Currents Weather Stations Pressure Air Temp Water Temp Dewpoint Dewpoint Depression Visibility Wind Speed Wind Dir Waves Ship Positions

Eko 2

Last reported at 2016-Oct-01 04:32 UTC. Time now 2016-Oct-01 18:56 UTC.
Position N 37°32' E 025°09'.

Length 89 m; draft 4.3 m.

Type: Ship (hazmat cat A). MMSI: 240827000.

Date/timePositionNaut miles runAvg speedWind from/ knotsBaromVisibWave heightAir tempDewpointWater temp
2016-Oct-01 04:32N 37°32' E 025°09'0 0.0
2016-Oct-01 03:33N 37°32' E 025°09'0 0.0
2016-Oct-01 00:32N 37°32' E 025°09'0 0.0
2016-Sep-30 22:32N 37°32' E 025°09'0 0.0
2016-Sep-30 20:32N 37°32' E 025°09'0 0.0
2016-Sep-30 17:32N 37°32' E 025°09'0 0.0
2016-Sep-30 16:33N 37°32' E 025°09'8 0.7
2016-Sep-30 06:23N 37°26' E 025°03'13 4.5
2016-Sep-30 03:31N 37°28' E 025°20'0 0.0
2016-Sep-30 02:31N 37°28' E 025°20'0 0.0
2016-Sep-29 23:31N 37°28' E 025°20'0 0.0
2016-Sep-29 21:28N 37°28' E 025°20'0 0.0
2016-Sep-29 20:31N 37°28' E 025°20'0 0.0
2016-Sep-29 19:31N 37°28' E 025°20'0 0.0
2016-Sep-29 16:31N 37°28' E 025°20'0 0.0
2016-Sep-29 15:31N 37°28' E 025°20'0 0.0
2016-Sep-29 14:33N 37°28' E 025°20'2 1.8
2016-Sep-29 13:33N 37°27' E 025°17'35 1.7
2016-Sep-28 16:33N 37°52' E 024°46'30 3.7
2016-Sep-28 08:33N 37°28' E 025°09'24 4.8
2016-Sep-28 03:32N 37°06' E 025°22'0 0.0
2016-Sep-28 02:32N 37°06' E 025°22'0 0.0
2016-Sep-28 01:31N 37°06' E 025°22'0 0.0
2016-Sep-27 23:34N 37°06' E 025°22'1 0.2
2016-Sep-27 19:31N 37°06' E 025°21'  
2016-Sep-23 06:33N 37°18' E 025°05'14 7.1
2016-Sep-23 04:31N 37°32' E 025°09'0 0.0
2016-Sep-23 03:31N 37°32' E 025°09'0 0.0
2016-Sep-23 02:28N 37°32' E 025°09'0 0.0
2016-Sep-23 01:25N 37°32' E 025°09'0 0.0
2016-Sep-23 00:31N 37°32' E 025°09'0 0.0
2016-Sep-22 23:31N 37°32' E 025°09'0 0.0
2016-Sep-22 20:31N 37°32' E 025°09'0 0.0
2016-Sep-22 12:31N 37°32' E 025°09'  

Dump ship's entire track history